Clover Valley, Nevada Weather observations

Data are for 10 minute period ending at time listed.
 Day   Time   Solar   Ave.   Ave.  Ave.  Vector  Max.   Baro.   Total    
  of    of     Rad.   Air    Rel.  Wind   Wind   Wind  Press.  Precip.   
Year   Day            Temp.  Hum.  Speed  Dir.   Gust                    
2016   (PST)  Kw/m2    F      %     mph   deg.    mph    mb.     in.     
-------------------------------------------------------------------------
 123   20:20   0.00   48.6    60    0.9    12     1.6   830.7    0.00 
 123   20:30   0.00   48.2    62    2.3   327     5.1   830.7    0.00 
 123   20:40   0.00   44.9    71    5.9   297    10.1   830.8    0.00 
 123   20:50   0.00   46.3    66    2.9   277     6.3   830.9    0.00 
 123   21:00   0.00   46.9    64    1.3   347     2.5   830.9    0.00 
 123   21:10   0.00   45.5    67    2.8    27     4.5   830.9    0.00 
 123   21:20   0.00   43.5    72    2.2    11     4.2   830.9    0.00 
 123   21:30   0.00   44.0    71    3.6   304     5.4   830.9    0.00 
 123   21:40   0.00   45.3    68    1.5   315     3.1   830.9    0.00 
 123   21:50   0.00   44.6    68    1.5    13     2.1   830.9    0.00 
 123   22:00   0.00   41.4    77    2.8   324     3.9   830.9    0.00 
 123   22:10   0.00   39.9    81    3.8     7     5.6   830.9    0.00 
 123   22:20   0.00   39.0    84    3.8   344     5.0   830.9    0.00 
 123   22:30   0.00   38.1    86    4.0   351     5.4   830.9    0.00 
 123   22:40   0.00   38.5    83    4.7   344     5.3   830.9    0.00 
 123   22:50   0.00   37.8    84    4.8   345     5.8   831.0    0.00 
 123   23:00   0.00   37.7    85    5.1   349     6.2   831.0    0.00 
 123   23:10   0.00   37.2    86    3.0   359     4.7   831.1    0.00 
 123   23:20   0.00   37.0    86    2.8   351     4.5   831.1    0.00 
 123   23:30   0.00   36.1    87    3.3   345     4.7   831.1    0.00 
 123   23:40   0.00   36.4    90    3.2   214     7.2   831.2    0.00 
 123   23:50   0.00   37.7    86    2.9   252     3.9   831.2    0.00 
 124    0:00   0.00   36.8    87    2.4   282     3.8   831.2    0.00 
 124    0:10   0.00   36.2    88    1.5   272     3.7   831.1    0.00 
 124    0:20   100.00  99999.0   99999  99999.0   99999   99999.0   99999.0   99999.00 
 124    0:30   100.00  99999.0   99999  99999.0   99999   99999.0   99999.0   99999.00 
 124    0:40   100.00  99999.0   99999  99999.0   99999   99999.0   99999.0   99999.00 
 124    0:50   100.00  99999.0   99999  99999.0   99999   99999.0   99999.0   99999.00 
 124    1:00   100.00  99999.0   99999  99999.0   99999   99999.0   99999.0   99999.00 
 124    1:10   100.00  99999.0   99999  99999.0   99999   99999.0   99999.0   99999.00 
 124    1:20   100.00  99999.0   99999  99999.0   99999   99999.0   99999.0   99999.00 
 124    1:30   100.00  99999.0   99999  99999.0   99999   99999.0   99999.0   99999.00 
 124    1:40   100.00  99999.0   99999  99999.0   99999   99999.0   99999.0   99999.00 
 124    1:50   100.00  99999.0   99999  99999.0   99999   99999.0   99999.0   99999.00 
 124    2:00   100.00  99999.0   99999  99999.0   99999   99999.0   99999.0   99999.00 
 124    2:10   100.00  99999.0   99999  99999.0   99999   99999.0   99999.0   99999.00 
 124    2:20   0.00   33.1    91    3.1   349     4.7   831.4    0.00 
 124    2:30   0.00   32.3    91    2.6   299     3.7   831.4    0.00 
 124    2:40   0.00   31.9    92    2.8   320     3.6   831.4    0.00 
 124    2:50   0.00   31.4    92    3.6   330     4.6   831.5    0.00 
 124    3:00   0.00   30.7    93    3.7   328     4.4   831.5    0.00 
 124    3:10   0.00   30.6    93    3.4   339     4.1   831.5    0.00 
 124    3:20   0.00   30.7    94    3.3   334     3.8   831.6    0.00 
 124    3:30   0.00   31.0    94    3.0   337     3.6   831.7    0.00 
 124    3:40   0.00   31.0    93    0.9   345     2.5   831.7    0.00 
 124    3:50   0.00   31.1    93    1.0   318     1.8   831.8    0.00 
 124    4:00   0.00   31.2    93    2.3   328     2.9   831.8    0.00 
 124    4:10   0.00   31.1    93    2.4   345     3.0   831.8    0.00 
 124    4:20   0.00   30.9    93    2.3   345     3.1   831.9    0.00 
 124    4:30   0.00   30.6    93    2.2   352     3.1   831.9    0.00 
 124    4:40   0.01   30.4    93    2.6   344     3.4   831.9    0.00 
 124    4:50   0.02   30.3    93    2.9   339     3.5   832.0    0.00 
 124    5:00   0.04   30.8    92    2.7   346     3.4   832.1    0.00 
 124    5:10   0.07   31.9    91    1.7   318     2.4   832.1    0.00 
 124    5:20   0.09   33.2    89    0.5   331     1.8   832.3    0.00 
 124    5:30   0.12   35.0    86    0.0     0     0.0   832.4    0.00 
 124    5:40   0.14   35.9    84    0.8    11     1.4   832.4    0.00 
 124    5:50   0.16   36.8    84    0.7    29     1.3   832.5    0.00 
 124    6:00   0.20   38.6    82    0.6    28     1.1   832.5    0.00 
 124    6:10   0.23   41.5    77    0.3    99     1.5   832.5    0.00 
 124    6:20   0.26   42.8    76    0.9   131     2.9   832.4    0.00 
 124    6:30   0.29   42.9    76    1.9   131     4.3   832.4    0.00 
 124    6:40   0.33   43.7    75    2.1   141     3.4   832.3    0.00 
 124    6:50   0.36   44.4    73    2.9   126     4.3   832.2    0.00 
 124    7:00   0.39   45.1    73    2.7   130     3.9   832.2    0.00 
 124    7:10   0.42   46.6    69    1.9   135     4.1   832.2    0.00 
 124    7:20   0.46   47.7    67    2.1   136     4.5   832.2    0.00 
 124    7:30   0.49   49.4    64    1.4   108     3.2   832.3    0.00 
 124    7:40   0.52   50.6    61    1.0   142     3.0   832.3    0.00 
 124    7:50   0.55   52.5    58    1.0   148     4.2   832.4    0.00 
 124    8:00   0.58   52.7    57    2.5   150     5.0   832.5    0.00 
 124    8:10   0.61   52.8    58    2.0   128     5.6   832.6    0.00 
 124    8:20   0.64   53.5    55    3.1   136     5.7   832.6    0.00 
 124    8:30   0.67   54.2    55    3.4   127     6.1   832.7    0.00 
 124    8:40   0.69   55.1    52    3.4   130     6.6   832.6    0.00 
 124    8:50   0.72   56.1    48    4.2   157     6.1   832.6    0.00 
 124    9:00   0.74   57.5    45    3.8   153     7.7   832.6    0.00 
 124    9:10   0.77   58.0    44    3.7   143     7.2   832.6    0.00 
 124    9:20   0.79   58.6    44    4.3   142     8.2   832.6    0.00 
 124    9:30   0.81   59.3    40    5.2   156     9.9   832.6    0.00 
 124    9:40   0.83   59.5    40    4.6   123     9.5   832.5    0.00 
 124    9:50   0.85   60.1    38    4.9   140     7.5   832.5    0.00 
 124   10:00   0.86   61.3    35    3.0   161     9.3   832.5    0.00 
 124   10:10   0.88   62.1    36    4.6   155    10.7   832.5    0.00 
 124   10:20   0.89   62.0    35    5.6   147    10.2   832.4    0.00 
 124   10:30   0.91   62.2    31    5.8   151    12.5   832.4    0.00 
 124   10:40   0.92   61.7    29    8.6   108    13.7   832.3    0.00 
 124   10:50   0.93   61.7    29    4.4   116    10.1   832.3    0.00 
 124   11:00   0.93   61.8    29    6.4   102    11.0   832.2    0.00 
 124   11:10   0.94   63.2    28    5.4   187     9.9   832.1    0.00 
 124   11:20   0.95   62.8    28    3.4    92    11.8   832.0    0.00 
 124   11:30   0.96   63.1    30    6.0    95    11.3   831.9    0.00 
 124   11:40   0.95   62.9    29    7.2   146    11.6   831.8    0.00 
 124   11:50   0.95   63.4    29    5.5   137    11.8   831.7    0.00 
 124   12:00   0.95   63.7    29    7.1   136    17.6   831.6    0.00 
 124   12:10   0.96   64.0    30    7.4   152    11.0   831.6    0.00 
 124   12:20   0.93   64.2    27    3.5   276     6.6   831.5    0.00 
 124   12:30   0.94   65.0    27    2.8   200    11.3   831.4    0.00 
 124   12:40   0.95   65.4    28    6.8   174    13.3   831.4    0.00 
 124   12:50   0.97   64.4    29    6.4   136    12.5   831.3    0.00 
 124   13:00   0.97   64.6    28    4.4   104    11.5   831.3    0.00 
 124   13:10   0.39   63.5    30    6.5   126    10.6   831.2    0.00 
 124   13:20   0.87   64.5    30    6.8   163    13.1   831.2    0.00 
 124   13:30   0.76   65.6    26    6.0   200    12.5   831.1    0.00 
 124   13:40   0.60   64.7    28    4.2   142     8.8   831.0    0.00 
 124   13:50   0.82   65.3    26    4.7   166    13.6   830.9    0.00 
 124   14:00   0.68   66.3    26    6.4   189    11.0   830.8    0.00 
 124   14:10   0.51   64.5    28    7.2   162    14.2   830.7    0.00 
 124   14:20   0.75   64.9    27    4.2   104    12.3   830.6    0.00 
 124   14:30   0.78   65.9    26    3.2   148    10.2   830.5    0.00 
 124   14:40   0.70   66.8    25    3.7   296     8.2   830.3    0.00 
 124   14:50   0.68   66.9    26    2.4   119     5.0   830.2    0.00 
 124   15:00   0.67   67.0    25    3.7   347     7.9   830.0    0.00 
 124   15:10   0.66   66.2    27   10.6   130    15.7   830.0    0.00 
 124   15:20   0.63   66.5    24    4.5   164    12.7   830.0    0.00 
 124   15:30   0.59   68.6    22    4.5   201     9.1   829.8    0.00 
 124   15:40   0.40   67.4    23    7.3   194    14.1   829.8    0.00 
 124   15:50   0.51   65.4    27    7.4   148    11.2   829.8    0.00 
 124   16:00   0.49   66.6    24    3.0   117    10.8   829.7    0.00 
 124   16:10   0.47   65.7    29    9.3   113    15.3   829.6    0.00 
 124   16:20   0.43   65.2    30    9.5   122    13.5   829.6    0.00 
 124   16:30   0.30   64.8    29    7.1   103    11.8   829.5    0.00 
 124   16:40   0.24   64.4    31    9.4   116    16.4   829.5    0.00 
 124   16:50   0.28   63.8    32    7.4   122    11.5   829.5    0.00 
 124   17:00   0.19   63.7    33    8.2   123    11.0   829.4    0.00 
 124   17:10   0.20   63.5    34    8.4   105    12.8   829.4    0.00 
 124   17:20   0.18   63.4    33    9.5   109    15.1   829.4    0.00 
 124   17:30   0.12   62.2    34    9.9   112    14.8   829.4    0.00 
 124   17:40   0.14   62.0    34   11.0    97    15.9   829.5    0.00 
 124   17:50   0.11   61.6    34   10.8    99    16.3   829.5    0.00 
 124   18:00   0.07   61.1    36   10.4   106    14.6   829.6    0.00 
 124   18:10   0.03   60.1    36   10.9    97    15.8   829.6    0.00 
 124   18:20   0.03   59.4    39    8.3    98    11.9   829.7    0.00 
 124   18:30   0.01   58.3    40    7.9   100    11.0   829.7    0.00 
 124   18:40   0.01   57.1    43    7.1   102     9.7   829.7    0.00 
 124   18:50   0.00   55.8    46    6.3   104     8.3   829.7    0.00 
 124   19:00   0.00   55.0    48    6.2   113     8.6   829.8    0.00 
 124   19:10   0.00   54.1    50    4.6    94     6.9   829.8    0.00 
 124   19:20   0.00   52.6    53    5.6   331    10.1   829.9    0.00 
 124   19:30   0.00   54.1    48    5.9   352    10.6   829.9    0.00 
 124   19:40   0.00   52.7    52    4.6   335     7.5   830.1    0.00 
 124   19:50   0.00   52.6    52    3.0   305     5.4   830.2    0.00 
 124   20:00   0.00   51.6    54    4.5   336     6.1   830.3    0.00 
 124   20:10   0.00   51.2    54    4.5   330     5.6   830.3    0.00 

Return to Clover Valley graphs page.


Western Regional Climate Center,wrcc@dri.edu